createdAt,value
2017-09-14T00:01:50.816Z,0
2017-09-14T00:06:56.210Z,0
2017-09-14T00:12:01.605Z,0
2017-09-14T00:17:07.000Z,0
2017-09-14T00:22:12.392Z,0
2017-09-14T00:27:17.448Z,0
2017-09-14T00:32:22.516Z,0
2017-09-14T00:37:27.238Z,0
2017-09-14T00:42:32.633Z,0
2017-09-14T00:47:37.694Z,0
2017-09-14T00:52:43.424Z,0
2017-09-14T00:57:48.820Z,0
2017-09-14T01:02:54.217Z,0
2017-09-14T01:07:59.275Z,0
2017-09-14T01:13:04.668Z,0
2017-09-14T01:18:09.729Z,0
2017-09-14T01:23:15.125Z,0
2017-09-14T01:28:20.518Z,0
2017-09-14T01:33:25.916Z,0
2017-09-14T01:38:31.310Z,0
2017-09-14T01:43:36.374Z,0
2017-09-14T01:48:41.433Z,0
2017-09-14T01:53:46.491Z,0
2017-09-14T01:58:51.555Z,0
2017-09-14T02:03:56.944Z,0
2017-09-14T02:09:02.338Z,0
2017-09-14T02:14:07.393Z,0
2017-09-14T02:19:12.788Z,0
2017-09-14T02:24:18.188Z,0
2017-09-14T02:29:22.581Z,0
2017-09-14T02:34:26.637Z,0
2017-09-14T02:39:31.693Z,0
2017-09-14T02:44:37.088Z,0
2017-09-14T02:49:43.157Z,0
2017-09-14T02:54:49.221Z,0
2017-09-14T02:59:54.283Z,0
2017-09-14T03:04:59.006Z,0
2017-09-14T03:10:03.731Z,0
2017-09-14T03:15:09.125Z,0
2017-09-14T03:20:14.519Z,0
2017-09-14T03:25:20.251Z,0
2017-09-14T03:30:25.314Z,0
2017-09-14T03:35:30.036Z,0
2017-09-14T03:40:34.429Z,0
2017-09-14T03:45:39.488Z,0
2017-09-14T03:50:45.216Z,0
2017-09-14T03:55:50.274Z,0
2017-09-14T04:00:56.002Z,0
2017-09-14T04:06:00.390Z,0
2017-09-14T04:11:06.451Z,0
2017-09-14T04:16:12.175Z,0
2017-09-14T04:21:18.240Z,1
2017-09-14T04:26:23.630Z,1
2017-09-14T04:31:28.354Z,2
2017-09-14T04:36:33.746Z,4
2017-09-14T04:41:39.189Z,8
2017-09-14T04:46:44.920Z,14
2017-09-14T04:51:50.650Z,24
2017-09-14T04:56:56.078Z,38
2017-09-14T05:02:01.480Z,55
2017-09-14T05:07:07.424Z,77
2017-09-14T05:12:12.819Z,106
2017-09-14T05:17:18.571Z,135
2017-09-14T05:22:23.978Z,167
2017-09-14T05:27:29.701Z,251
2017-09-14T05:32:35.099Z,372
2017-09-14T05:37:40.162Z,477
2017-09-14T05:42:45.569Z,582
2017-09-14T05:47:50.965Z,696
2017-09-14T05:52:56.362Z,814
2017-09-14T05:58:01.092Z,964
2017-09-14T06:03:06.151Z,1086
2017-09-14T06:08:12.220Z,1245
2017-09-14T06:13:17.953Z,1449
2017-09-14T06:18:23.350Z,1662
2017-09-14T06:23:28.746Z,1878
2017-09-14T06:28:33.476Z,2160
2017-09-14T06:33:38.887Z,2447
2017-09-14T06:38:43.950Z,2751
2017-09-14T06:43:49.353Z,3030
2017-09-14T06:48:54.086Z,3434
2017-09-14T06:53:59.157Z,3895
2017-09-14T06:59:04.226Z,2650
2017-09-14T07:04:09.630Z,4955
2017-09-14T07:09:15.030Z,5473
2017-09-14T07:14:20.766Z,5898
2017-09-14T07:19:25.166Z,6762
2017-09-14T07:24:30.234Z,4456
2017-09-14T07:29:36.306Z,7350
2017-09-14T07:34:41.374Z,7375
2017-09-14T07:39:45.775Z,6931
2017-09-14T07:44:50.841Z,1446
2017-09-14T07:49:56.244Z,1312
2017-09-14T07:55:01.644Z,3158
2017-09-14T08:00:07.385Z,22400
2017-09-14T08:05:12.458Z,9791
2017-09-14T08:10:17.859Z,4633
2017-09-14T08:15:23.605Z,44096
2017-09-14T08:20:28.347Z,32648
2017-09-14T08:25:33.425Z,31048
2017-09-14T08:30:38.171Z,2443
2017-09-14T08:35:43.915Z,3238
2017-09-14T08:40:48.990Z,3375
2017-09-14T08:45:54.400Z,1655
2017-09-14T08:50:59.804Z,1291
2017-09-14T08:56:05.213Z,2103
2017-09-14T09:01:10.627Z,10492
2017-09-14T09:06:15.367Z,40928
2017-09-14T09:11:20.105Z,35896
2017-09-14T09:16:25.512Z,49432
2017-09-14T09:21:30.917Z,50216
2017-09-14T09:26:36.328Z,50784
2017-09-14T09:31:41.737Z,2405
2017-09-14T09:36:47.144Z,854
2017-09-14T09:41:52.556Z,51112
2017-09-14T09:46:57.298Z,22840
2017-09-14T09:52:02.703Z,4160
2017-09-14T09:57:07.780Z,3039
2017-09-14T10:02:12.517Z,3387
2017-09-14T10:07:18.596Z,1257
2017-09-14T10:12:23.340Z,2910
2017-09-14T10:17:29.421Z,2665
2017-09-14T10:22:34.502Z,2587
2017-09-14T10:27:39.926Z,1427
2017-09-14T10:32:44.669Z,2653
2017-09-14T10:37:50.410Z,1749
2017-09-14T10:42:54.814Z,2131
2017-09-14T10:47:59.885Z,659
2017-09-14T10:53:04.958Z,823
2017-09-14T10:58:10.028Z,1369
2017-09-14T11:03:15.428Z,997
2017-09-14T11:08:20.501Z,1101
2017-09-14T11:13:25.571Z,2506
2017-09-14T11:18:31.330Z,2047
2017-09-14T11:23:37.073Z,1931
2017-09-14T11:28:41.804Z,1771
2017-09-14T11:33:47.213Z,1674
2017-09-14T11:38:52.618Z,2396
2017-09-14T11:43:57.358Z,1765
2017-09-14T11:49:02.097Z,1700
2017-09-14T11:54:07.504Z,1900
2017-09-14T11:59:12.243Z,2174
2017-09-14T12:04:17.647Z,1489
2017-09-14T12:09:22.720Z,1509
2017-09-14T12:14:27.454Z,895
2017-09-14T12:19:32.856Z,1467
2017-09-14T12:24:38.264Z,1430
2017-09-14T12:29:43.671Z,1299
2017-09-14T12:34:48.761Z,1118
2017-09-14T12:39:53.836Z,1011
2017-09-14T12:44:58.568Z,1231
2017-09-14T12:50:03.972Z,1190
2017-09-14T12:55:09.044Z,627
2017-09-14T13:00:13.772Z,990
2017-09-14T13:05:19.180Z,1162
2017-09-14T13:10:24.269Z,1098
2017-09-14T13:15:29.687Z,963
2017-09-14T13:20:35.083Z,749
2017-09-14T13:25:40.154Z,600
2017-09-14T13:30:45.219Z,953
2017-09-14T13:35:51.290Z,949
2017-09-14T13:40:56.689Z,841
2017-09-14T13:46:02.090Z,902
2017-09-14T13:51:07.824Z,859
2017-09-14T13:56:12.892Z,949
2017-09-14T14:01:18.629Z,810
2017-09-14T14:06:23.367Z,809
2017-09-14T14:11:29.106Z,922
2017-09-14T14:16:34.508Z,879
2017-09-14T14:21:40.255Z,805
2017-09-14T14:26:45.657Z,614
2017-09-14T14:31:50.385Z,351
2017-09-14T14:36:56.127Z,316
2017-09-14T14:42:01.201Z,387
2017-09-14T14:47:06.607Z,550
2017-09-14T14:52:11.001Z,571
2017-09-14T14:57:16.738Z,573
2017-09-14T15:02:22.475Z,359
2017-09-14T15:07:27.881Z,443
2017-09-14T15:12:32.945Z,422
2017-09-14T15:17:38.690Z,391
2017-09-14T15:22:44.756Z,357
2017-09-14T15:27:50.153Z,295
2017-09-14T15:32:54.887Z,289
2017-09-14T15:38:00.288Z,314
2017-09-14T15:43:05.692Z,297
2017-09-14T15:48:11.434Z,307
2017-09-14T15:53:16.499Z,318
2017-09-14T15:58:21.228Z,324
2017-09-14T16:03:26.630Z,373
2017-09-14T16:08:32.434Z,375
2017-09-14T16:13:37.462Z,353
2017-09-14T16:18:43.198Z,306
2017-09-14T16:23:48.600Z,272
2017-09-14T16:28:54.021Z,241
2017-09-14T16:33:58.823Z,200
2017-09-14T16:39:04.283Z,159
2017-09-14T16:44:10.133Z,125
2017-09-14T16:49:15.339Z,115
2017-09-14T16:54:21.012Z,108
2017-09-14T16:59:26.075Z,89
2017-09-14T17:04:31.488Z,60
2017-09-14T17:09:36.900Z,43
2017-09-14T17:14:42.300Z,29
2017-09-14T17:19:47.702Z,28
2017-09-14T17:24:52.777Z,20
2017-09-14T17:29:57.854Z,15
2017-09-14T17:35:02.584Z,8
2017-09-14T17:40:07.695Z,7
2017-09-14T17:45:13.094Z,4
2017-09-14T17:50:17.826Z,3
2017-09-14T17:55:22.889Z,2
2017-09-14T18:00:27.618Z,1
2017-09-14T18:05:33.347Z,1
2017-09-14T18:10:38.418Z,0
2017-09-14T18:15:43.487Z,0
2017-09-14T18:20:48.885Z,0
2017-09-14T18:25:54.954Z,0
2017-09-14T18:31:00.682Z,0
2017-09-14T18:36:05.408Z,0
2017-09-14T18:41:10.138Z,0
2017-09-14T18:46:15.878Z,0
2017-09-14T18:51:20.607Z,0
2017-09-14T18:56:25.682Z,0
2017-09-14T19:01:31.753Z,0
2017-09-14T19:06:37.492Z,0
2017-09-14T19:11:41.886Z,0
2017-09-14T19:16:46.621Z,0
2017-09-14T19:21:51.687Z,0
2017-09-14T19:26:57.767Z,0
2017-09-14T19:32:02.515Z,0
2017-09-14T19:37:07.601Z,0
2017-09-14T19:42:13.023Z,0
2017-09-14T19:47:17.758Z,0
2017-09-14T19:52:22.497Z,0
2017-09-14T19:57:27.566Z,0
2017-09-14T20:02:33.316Z,3
2017-09-14T20:07:39.056Z,0
2017-09-14T20:12:44.135Z,0
2017-09-14T20:17:49.226Z,0
2017-09-14T20:22:54.641Z,0
2017-09-14T20:27:59.749Z,0
2017-09-14T20:33:04.820Z,0
2017-09-14T20:38:10.558Z,0
2017-09-14T20:43:15.630Z,0
2017-09-14T20:48:20.709Z,0
2017-09-14T20:53:25.778Z,0
2017-09-14T20:58:31.565Z,0
2017-09-14T21:03:36.631Z,0
2017-09-14T21:08:42.035Z,0
2017-09-14T21:13:47.777Z,0
2017-09-14T21:18:52.842Z,0
2017-09-14T21:23:58.238Z,0
2017-09-14T21:29:03.301Z,0
2017-09-14T21:34:08.360Z,0
2017-09-14T21:39:13.420Z,0
2017-09-14T21:44:18.144Z,0
2017-09-14T21:49:23.213Z,0
2017-09-14T21:54:28.610Z,0
2017-09-14T21:59:34.006Z,0
2017-09-14T22:04:38.730Z,0
2017-09-14T22:09:44.124Z,0
2017-09-14T22:14:49.857Z,0
2017-09-14T22:19:55.248Z,0
2017-09-14T22:25:00.313Z,0
2017-09-14T22:30:05.374Z,0
2017-09-14T22:35:09.763Z,0
2017-09-14T22:40:15.160Z,0
2017-09-14T22:45:20.897Z,0
2017-09-14T22:50:25.962Z,0
2017-09-14T22:55:31.028Z,0
2017-09-14T23:00:35.754Z,0
2017-09-14T23:05:41.493Z,0
2017-09-14T23:10:47.229Z,0
2017-09-14T23:15:52.287Z,0
2017-09-14T23:20:58.018Z,0
2017-09-14T23:26:02.739Z,0
2017-09-14T23:31:07.799Z,0
2017-09-14T23:36:13.200Z,0
2017-09-14T23:41:18.596Z,0
2017-09-14T23:46:23.325Z,0
2017-09-14T23:51:29.391Z,0
2017-09-14T23:56:34.118Z,0
